Trenton, NJ

3:42 AM EST on November 28, 2014 (GMT -0500)
Morris Heights | Change Station
CLOSE
Current Station
Personal Weather Station
Location: Morrisville, PA
Elevation: 89 ft
Nearby Weather Stations

Elev 89 ft 40.22 °N, 74.78 °W | Updated 9 seconds ago

Overcast
Overcast
30.8 °F
Feels Like 31 °F
N
0.0
Wind Variable Wind from NW
Gusts 0.6 mph

Today
High -- | Low -- °F
--% Chance of Precip.
Yesterday
High -- | Low -- °F
Precip. -- in
6:59 AM 4:34 PM
Waxing Crescent, 38% visible
Pressure 30.10 in
Visibility 10.0 miles
Clouds Overcast 7500 ft
Windchill 31 °F
Dew Point 27 °F
Humidity 85%
Rainfall 0.00 in
Snow Depth Not available.
UV 0 out of 12
Pollen .10 out of 12
Air Quality Not available.
Flu Activity Not available.
METAR KTTN 280753Z AUTO 29003KT 10SM OVC075 M01/M04 A3011 RMK AO2 SLP191 T10111044

More Conditions Fewer Conditions

Pressure 30.10 in
Visibility 10.0 miles
Clouds Overcast 7500 ft
Windchill 31 °F
Dew Point 27 °F
Humidity 85%
Rainfall 0.00 in
Snow Depth Not available.
UV 0 out of 12
Pollen .10 out of 12
Air Quality Not available.
Flu Activity Not available.
METAR KTTN 280753Z AUTO 29003KT 10SM OVC075 M01/M04 A3011 RMK AO2 SLP191 T10111044

More Conditions Fewer Conditions

Nowcast | as of 2:08 am EST on November 28, 2014

Between now and 400 am, scattered snow flurries will affect the Lehigh Valley and parts of southeastern Pennsylvania, as well as parts of northern Delaware and southwestern and central New Jersey.

×

10-Day Weather Forecast

Almanac

Astronomy

Nov. 28, 2014 Rise Set
Actual Time
Civil Twilight
Nautical Twilight
Astronomical Twilight
Moon
Length of Visible Light
Length of Day
Tomorrow will be .
, % of the Moon is Illuminated

Today's Extremes

State Highs State Lows

Community

WunderPhotos

Upload Photos

1,774,190 photos uploaded!

WunderBlogs® & News

Nearby

Air Quality

  Air Quality AQ Index Pollutant
Not available.

Snow Depth

Station Depth Elevation

Earthquake Activity

City Distance Mag. Time & Date
Minimum magnitude displayed is 2.5.

Coastal Water Temperatures

Place Temperature

Nearby Weather Stations